createdAt,value
2023-03-19T00:00:33.085Z,100.00
2023-03-19T00:03:01.119Z,100.00
2023-03-19T00:05:28.912Z,100.00
2023-03-19T00:07:56.914Z,100.00
2023-03-19T00:10:24.558Z,100.00
2023-03-19T00:12:52.169Z,100.00
2023-03-19T00:15:22.338Z,100.00
2023-03-19T00:17:49.991Z,100.00
2023-03-19T00:20:18.321Z,100.00
2023-03-19T00:22:46.219Z,100.00
2023-03-19T00:25:13.848Z,100.00
2023-03-19T00:27:42.101Z,100.00
2023-03-19T00:30:11.368Z,100.00
2023-03-19T00:32:40.517Z,100.00
2023-03-19T00:35:09.601Z,100.00
2023-03-19T00:37:38.528Z,100.00
2023-03-19T00:40:07.848Z,100.00
2023-03-19T00:42:35.705Z,100.00
2023-03-19T00:45:03.360Z,100.00
2023-03-19T00:47:31.351Z,100.00
2023-03-19T00:50:00.364Z,100.00
2023-03-19T00:52:27.967Z,100.00
2023-03-19T00:54:55.862Z,100.00
2023-03-19T00:57:23.484Z,100.00
2023-03-19T00:59:51.093Z,100.00
2023-03-19T01:02:18.769Z,100.00
2023-03-19T01:04:49.001Z,100.00
2023-03-19T01:07:18.142Z,100.00
2023-03-19T01:09:45.923Z,100.00
2023-03-19T01:12:13.566Z,100.00
2023-03-19T01:14:41.208Z,100.00
2023-03-19T01:17:09.026Z,100.00
2023-03-19T01:19:36.573Z,100.00
2023-03-19T01:22:04.504Z,100.00
2023-03-19T01:24:33.649Z,100.00
2023-03-19T01:27:01.441Z,100.00
2023-03-19T01:29:29.110Z,100.00
2023-03-19T01:31:57.310Z,100.00
2023-03-19T01:34:24.947Z,100.00
2023-03-19T01:36:52.591Z,100.00
2023-03-19T01:39:20.262Z,100.00
2023-03-19T01:41:49.287Z,100.00
2023-03-19T01:44:27.732Z,100.00
2023-03-19T01:46:55.903Z,100.00
2023-03-19T01:49:24.768Z,100.00
2023-03-19T01:51:52.843Z,100.00
2023-03-19T01:54:22.442Z,100.00
2023-03-19T01:56:54.618Z,100.00
2023-03-19T01:59:26.640Z,100.00
2023-03-19T02:01:57.953Z,100.00
2023-03-19T02:04:27.204Z,100.00
2023-03-19T02:06:56.010Z,100.00
2023-03-19T02:09:25.885Z,100.00
2023-03-19T02:11:55.826Z,100.00
2023-03-19T02:14:23.597Z,100.00
2023-03-19T02:16:51.409Z,100.00
2023-03-19T02:19:23.627Z,100.00
2023-03-19T02:21:51.317Z,100.00
2023-03-19T02:24:23.262Z,100.00
2023-03-19T02:26:52.573Z,100.00
2023-03-19T02:29:20.607Z,100.00
2023-03-19T02:31:48.380Z,100.00
2023-03-19T02:34:39.036Z,100.00
2023-03-19T02:37:12.632Z,100.00
2023-03-19T02:39:48.177Z,100.00
2023-03-19T02:42:18.650Z,100.00
2023-03-19T02:44:46.514Z,100.00
2023-03-19T02:47:14.331Z,100.00
2023-03-19T02:49:42.932Z,100.00
2023-03-19T02:52:10.743Z,100.00
2023-03-19T02:54:38.383Z,100.00
2023-03-19T02:57:06.464Z,100.00
2023-03-19T02:59:35.786Z,100.00
2023-03-19T03:02:03.552Z,100.00
2023-03-19T03:04:31.947Z,100.00
2023-03-19T03:06:59.655Z,100.00
2023-03-19T03:09:27.623Z,100.00
2023-03-19T03:11:55.405Z,100.00
2023-03-19T03:14:23.190Z,100.00
2023-03-19T03:16:52.492Z,100.00
2023-03-19T03:19:20.476Z,100.00
2023-03-19T03:21:48.227Z,100.00
2023-03-19T03:24:15.868Z,100.00
2023-03-19T03:26:44.178Z,100.00
2023-03-19T03:29:12.043Z,100.00
2023-03-19T03:31:39.783Z,100.00
2023-03-19T03:34:08.851Z,100.00
2023-03-19T03:36:37.259Z,100.00
2023-03-19T03:39:05.349Z,100.00
2023-03-19T03:41:33.159Z,100.00
2023-03-19T03:44:01.164Z,100.00
2023-03-19T03:46:28.771Z,100.00
2023-03-19T03:48:56.382Z,100.00
2023-03-19T03:51:25.401Z,100.00
2023-03-19T03:53:53.072Z,100.00
2023-03-19T03:56:20.896Z,100.00
2023-03-19T03:58:48.526Z,100.00
2023-03-19T04:01:17.202Z,100.00
2023-03-19T04:03:45.489Z,100.00
2023-03-19T04:06:16.339Z,100.00
2023-03-19T04:08:45.992Z,100.00
2023-03-19T04:11:13.873Z,100.00
2023-03-19T04:13:42.264Z,100.00
2023-03-19T04:16:11.013Z,100.00
2023-03-19T04:18:39.184Z,100.00
2023-03-19T04:21:07.484Z,100.00
2023-03-19T04:23:36.223Z,100.00
2023-03-19T04:26:06.879Z,100.00
2023-03-19T04:28:34.736Z,100.00
2023-03-19T04:31:03.158Z,100.00
2023-03-19T04:33:30.983Z,100.00
2023-03-19T04:35:58.983Z,100.00
2023-03-19T04:38:27.796Z,100.00
2023-03-19T04:40:55.980Z,100.00
2023-03-19T04:43:25.118Z,100.00
2023-03-19T04:45:52.883Z,100.00
2023-03-19T04:48:20.700Z,100.00
2023-03-19T04:50:51.814Z,100.00
2023-03-19T04:53:20.377Z,100.00
2023-03-19T04:55:48.226Z,100.00
2023-03-19T04:58:16.061Z,100.00
2023-03-19T05:00:46.887Z,100.00
2023-03-19T05:03:14.703Z,100.00
2023-03-19T05:05:42.513Z,100.00
2023-03-19T05:08:10.459Z,100.00
2023-03-19T05:10:39.302Z,100.00
2023-03-19T05:13:07.873Z,100.00
2023-03-19T05:15:35.523Z,100.00
2023-03-19T05:18:04.780Z,100.00
2023-03-19T05:20:32.599Z,100.00
2023-03-19T05:23:00.712Z,100.00
2023-03-19T05:25:28.901Z,100.00
2023-03-19T05:27:56.936Z,100.00
2023-03-19T05:30:24.637Z,100.00
2023-03-19T05:32:53.081Z,100.00
2023-03-19T05:35:22.870Z,100.00
2023-03-19T05:37:50.541Z,100.00
2023-03-19T05:40:18.469Z,100.00
2023-03-19T05:42:46.381Z,100.00
2023-03-19T05:45:14.130Z,100.00
2023-03-19T05:47:41.975Z,100.00
2023-03-19T05:50:11.511Z,100.00
2023-03-19T05:52:40.524Z,100.00
2023-03-19T05:55:09.710Z,100.00
2023-03-19T05:57:38.109Z,100.00
2023-03-19T06:00:07.518Z,100.00
2023-03-19T06:02:35.650Z,100.00
2023-03-19T06:05:03.516Z,100.00
2023-03-19T06:07:31.329Z,100.00
2023-03-19T06:10:00.464Z,100.00
2023-03-19T06:12:28.692Z,100.00
2023-03-19T06:14:56.700Z,100.00
2023-03-19T06:17:24.355Z,100.00
2023-03-19T06:19:51.955Z,100.00
2023-03-19T06:22:19.858Z,100.00
2023-03-19T06:24:47.497Z,100.00
2023-03-19T06:27:16.505Z,100.00
2023-03-19T06:29:44.106Z,100.00
2023-03-19T06:32:11.762Z,100.00
2023-03-19T06:34:39.386Z,100.00
2023-03-19T06:37:07.520Z,100.00
2023-03-19T06:39:35.208Z,100.00
2023-03-19T06:42:02.917Z,100.00
2023-03-19T06:44:32.828Z,100.00
2023-03-19T06:47:00.467Z,100.00
2023-03-19T06:49:28.254Z,100.00
2023-03-19T06:51:56.157Z,100.00
2023-03-19T06:54:23.917Z,100.00
2023-03-19T06:56:51.543Z,100.00
2023-03-19T06:59:19.392Z,100.00
2023-03-19T07:01:48.393Z,100.00
2023-03-19T07:04:16.159Z,100.00
2023-03-19T07:06:43.816Z,100.00
2023-03-19T07:09:11.464Z,100.00
2023-03-19T07:11:39.045Z,100.00
2023-03-19T07:14:06.655Z,100.00
2023-03-19T07:16:34.404Z,100.00
2023-03-19T07:19:03.895Z,100.00
2023-03-19T07:21:31.652Z,100.00
2023-03-19T07:23:59.237Z,100.00
2023-03-19T07:26:27.691Z,100.00
2023-03-19T07:28:55.433Z,100.00
2023-03-19T07:31:23.268Z,100.00
2023-03-19T07:33:51.295Z,100.00
2023-03-19T07:36:21.322Z,100.00
2023-03-19T07:38:48.955Z,100.00
2023-03-19T07:41:17.050Z,100.00
2023-03-19T07:43:44.638Z,100.00
2023-03-19T07:46:13.019Z,100.00
2023-03-19T07:48:40.675Z,100.00
2023-03-19T07:51:08.359Z,100.00
2023-03-19T07:53:37.356Z,100.00
2023-03-19T07:56:05.493Z,100.00
2023-03-19T07:58:33.219Z,100.00
2023-03-19T08:01:00.846Z,100.00
2023-03-19T08:03:29.283Z,100.00
2023-03-19T08:05:56.864Z,100.00
2023-03-19T08:08:24.824Z,100.00
2023-03-19T08:10:55.918Z,100.00
2023-03-19T08:13:23.623Z,100.00
2023-03-19T08:15:52.248Z,100.00
2023-03-19T08:18:20.574Z,100.00
2023-03-19T08:20:48.378Z,100.00
2023-03-19T08:23:16.291Z,100.00
2023-03-19T08:25:43.942Z,100.00
2023-03-19T08:28:13.289Z,100.00
2023-03-19T08:30:40.965Z,100.00
2023-03-19T08:33:08.875Z,100.00
2023-03-19T08:35:38.179Z,100.00
2023-03-19T08:38:06.112Z,100.00
2023-03-19T08:40:34.091Z,100.00
2023-03-19T08:43:02.126Z,100.00
2023-03-19T08:45:31.284Z,100.00
2023-03-19T08:47:59.428Z,100.00
2023-03-19T08:50:29.072Z,100.00
2023-03-19T08:52:57.659Z,100.00
2023-03-19T08:55:25.311Z,100.00
2023-03-19T08:57:52.972Z,100.00
2023-03-19T09:00:21.184Z,100.00
2023-03-19T09:02:50.160Z,100.00
2023-03-19T09:05:20.268Z,100.00
2023-03-19T09:07:47.850Z,100.00
2023-03-19T09:10:15.519Z,100.00
2023-03-19T09:12:43.113Z,100.00
2023-03-19T09:15:11.103Z,100.00
2023-03-19T09:17:38.790Z,100.00
2023-03-19T09:20:10.457Z,100.00
2023-03-19T09:22:38.320Z,100.00
2023-03-19T09:25:06.897Z,100.00
2023-03-19T09:27:34.538Z,100.00
2023-03-19T09:30:02.096Z,100.00
2023-03-19T09:32:29.691Z,100.00
2023-03-19T09:34:58.222Z,100.00
2023-03-19T09:37:27.180Z,100.00
2023-03-19T09:39:54.751Z,100.00
2023-03-19T09:42:34.128Z,100.00
2023-03-19T09:45:01.898Z,100.00
2023-03-19T09:47:31.677Z,100.00
2023-03-19T09:50:02.167Z,100.00
2023-03-19T09:52:37.560Z,100.00
2023-03-19T09:55:11.497Z,100.00
2023-03-19T09:57:39.996Z,100.00
2023-03-19T10:00:20.859Z,100.00
2023-03-19T10:02:50.506Z,100.00
2023-03-19T10:05:25.122Z,100.00
2023-03-19T10:08:04.369Z,100.00
2023-03-19T10:10:43.197Z,100.00
2023-03-19T10:13:19.376Z,100.00
2023-03-19T10:15:47.963Z,99.20
2023-03-19T10:18:18.533Z,100.00
2023-03-19T10:20:50.748Z,100.00
2023-03-19T10:23:38.696Z,100.00
2023-03-19T10:26:10.008Z,100.00
2023-03-19T10:28:38.389Z,100.00
2023-03-19T10:31:14.955Z,100.00
2023-03-19T10:33:46.560Z,96.84
2023-03-19T10:36:16.216Z,97.89
2023-03-19T10:38:45.434Z,99.08
2023-03-19T10:41:22.331Z,98.97
2023-03-19T10:43:54.128Z,99.78
2023-03-19T10:46:22.732Z,97.40
2023-03-19T10:48:50.532Z,94.72
2023-03-19T10:51:23.114Z,91.96
2023-03-19T10:53:53.832Z,89.93
2023-03-19T10:56:23.116Z,89.83
2023-03-19T10:58:59.182Z,89.30
2023-03-19T11:01:34.071Z,91.41
2023-03-19T11:04:02.612Z,93.48
2023-03-19T11:06:34.048Z,95.26
2023-03-19T11:09:14.135Z,96.68
2023-03-19T11:11:45.352Z,97.92
2023-03-19T11:14:17.294Z,98.81
2023-03-19T11:16:52.664Z,98.57
2023-03-19T11:19:22.520Z,100.00
2023-03-19T11:22:14.383Z,100.00
2023-03-19T11:24:49.802Z,99.96
2023-03-19T11:27:17.794Z,98.25
2023-03-19T11:29:46.811Z,98.20
2023-03-19T11:32:26.532Z,99.83
2023-03-19T11:34:59.029Z,98.97
2023-03-19T11:37:32.555Z,98.36
2023-03-19T11:40:08.150Z,96.75
2023-03-19T11:42:49.256Z,93.62
2023-03-19T11:45:26.105Z,90.51
2023-03-19T11:47:59.877Z,88.84
2023-03-19T11:50:30.274Z,87.81
2023-03-19T11:53:04.520Z,88.27
2023-03-19T11:55:38.251Z,87.43
2023-03-19T11:58:30.042Z,86.50
2023-03-19T12:00:58.512Z,86.59
2023-03-19T12:03:42.641Z,84.23
2023-03-19T12:06:18.687Z,83.53
2023-03-19T12:08:51.303Z,83.48
2023-03-19T12:11:25.370Z,81.41
2023-03-19T12:14:03.299Z,81.31
2023-03-19T12:16:46.238Z,81.91
2023-03-19T12:19:28.776Z,82.66
2023-03-19T12:22:04.074Z,84.22
2023-03-19T12:24:45.384Z,81.81
2023-03-19T12:27:23.500Z,83.22
2023-03-19T12:29:58.157Z,83.10
2023-03-19T12:32:37.839Z,85.62
2023-03-19T12:35:10.728Z,85.23
2023-03-19T12:37:41.733Z,85.10
2023-03-19T12:40:21.753Z,85.01
2023-03-19T12:42:51.832Z,86.28
2023-03-19T12:45:28.634Z,86.65
2023-03-19T12:48:00.985Z,86.27
2023-03-19T12:50:29.576Z,85.94
2023-03-19T12:52:58.618Z,83.31
2023-03-19T12:55:36.765Z,82.39
2023-03-19T12:58:13.583Z,81.38
2023-03-19T13:00:47.549Z,78.74
2023-03-19T13:03:19.292Z,75.48
2023-03-19T13:05:48.607Z,75.04
2023-03-19T13:08:20.619Z,75.31
2023-03-19T13:10:48.195Z,73.24
2023-03-19T13:13:33.268Z,72.93
2023-03-19T13:16:05.302Z,73.98
2023-03-19T13:18:38.928Z,73.86
2023-03-19T13:21:18.485Z,73.61
2023-03-19T13:23:47.783Z,72.50
2023-03-19T13:26:15.998Z,71.11
2023-03-19T13:29:01.556Z,71.55
2023-03-19T13:31:29.666Z,69.74
2023-03-19T13:34:02.927Z,69.72
2023-03-19T13:36:31.775Z,70.16
2023-03-19T13:39:00.549Z,70.29
2023-03-19T13:42:01.709Z,71.01
2023-03-19T13:44:35.885Z,72.29
2023-03-19T13:47:04.562Z,73.27
2023-03-19T13:49:35.455Z,72.70
2023-03-19T13:52:50.697Z,71.98
2023-03-19T13:55:34.354Z,72.47
2023-03-19T13:58:37.641Z,72.39
2023-03-19T14:01:07.736Z,71.97
2023-03-19T14:03:36.839Z,72.30
2023-03-19T14:06:05.054Z,68.85
2023-03-19T14:08:43.993Z,68.62
2023-03-19T14:11:12.638Z,70.37
2023-03-19T14:13:43.211Z,70.74
2023-03-19T14:16:17.758Z,69.17
2023-03-19T14:18:45.764Z,69.78
2023-03-19T14:21:20.714Z,69.59
2023-03-19T14:23:55.218Z,70.24
2023-03-19T14:26:24.551Z,70.03
2023-03-19T14:28:58.706Z,69.64
2023-03-19T14:31:38.117Z,68.10
2023-03-19T14:34:13.711Z,69.13
2023-03-19T14:36:44.038Z,69.79
2023-03-19T14:39:19.095Z,69.86
2023-03-19T14:41:47.505Z,71.13
2023-03-19T14:44:38.776Z,71.20
2023-03-19T14:47:22.609Z,71.40
2023-03-19T14:49:58.534Z,70.50
2023-03-19T14:52:26.836Z,68.75
2023-03-19T14:54:57.742Z,68.44
2023-03-19T14:57:28.232Z,69.33
2023-03-19T14:59:56.756Z,70.29
2023-03-19T15:02:38.043Z,69.83
2023-03-19T15:05:08.299Z,71.28
2023-03-19T15:07:38.554Z,73.06
2023-03-19T15:10:09.025Z,72.57
2023-03-19T15:12:58.906Z,73.22
2023-03-19T15:15:39.243Z,72.37
2023-03-19T15:18:11.253Z,72.25
2023-03-19T15:20:40.459Z,71.52
2023-03-19T15:23:23.426Z,72.72
2023-03-19T15:25:56.929Z,73.62
2023-03-19T15:28:27.060Z,74.84
2023-03-19T15:31:14.248Z,74.32
2023-03-19T15:33:48.774Z,74.64
2023-03-19T15:36:19.273Z,75.16
2023-03-19T15:38:50.708Z,76.46
2023-03-19T15:41:18.913Z,76.83
2023-03-19T15:43:46.879Z,75.68
2023-03-19T15:46:16.529Z,75.64
2023-03-19T15:48:45.720Z,77.00
2023-03-19T15:51:16.050Z,77.54
2023-03-19T15:53:44.217Z,76.54
2023-03-19T15:56:14.310Z,75.88
2023-03-19T15:58:46.970Z,74.57
2023-03-19T16:01:15.174Z,74.39
2023-03-19T16:03:44.463Z,74.54
2023-03-19T16:06:18.732Z,74.06
2023-03-19T16:08:50.355Z,73.52
2023-03-19T16:11:28.916Z,74.02
2023-03-19T16:14:00.133Z,75.07
2023-03-19T16:16:30.733Z,75.78
2023-03-19T16:19:00.138Z,75.96
2023-03-19T16:21:36.145Z,76.83
2023-03-19T16:24:06.291Z,78.03
2023-03-19T16:26:38.482Z,77.87
2023-03-19T16:29:18.597Z,78.70
2023-03-19T16:31:51.723Z,79.47
2023-03-19T16:34:26.029Z,82.03
2023-03-19T16:36:55.468Z,83.34
2023-03-19T16:39:32.829Z,84.94
2023-03-19T16:42:28.567Z,85.52
2023-03-19T16:44:56.538Z,86.75
2023-03-19T16:47:24.518Z,87.84
2023-03-19T16:49:52.143Z,89.53
2023-03-19T16:52:22.905Z,91.52
2023-03-19T16:54:51.932Z,93.80
2023-03-19T16:57:19.945Z,96.24
2023-03-19T16:59:48.111Z,98.23
2023-03-19T17:02:17.571Z,100.00
2023-03-19T17:04:45.865Z,100.00
2023-03-19T17:07:13.927Z,100.00
2023-03-19T17:09:42.898Z,100.00
2023-03-19T17:12:15.894Z,100.00
2023-03-19T17:14:43.662Z,100.00
2023-03-19T17:17:18.541Z,100.00
2023-03-19T17:19:46.661Z,100.00
2023-03-19T17:22:14.968Z,100.00
2023-03-19T17:24:44.175Z,100.00
2023-03-19T17:27:12.041Z,100.00
2023-03-19T17:29:39.654Z,100.00
2023-03-19T17:32:11.242Z,100.00
2023-03-19T17:34:39.005Z,100.00
2023-03-19T17:37:12.150Z,100.00
2023-03-19T17:39:41.635Z,100.00
2023-03-19T17:42:18.918Z,100.00
2023-03-19T17:44:46.719Z,100.00
2023-03-19T17:47:14.471Z,100.00
2023-03-19T17:49:43.243Z,100.00
2023-03-19T17:52:15.393Z,100.00
2023-03-19T17:54:43.076Z,100.00
2023-03-19T17:57:14.303Z,100.00
2023-03-19T17:59:41.932Z,100.00
2023-03-19T18:02:25.771Z,100.00
2023-03-19T18:04:53.620Z,100.00
2023-03-19T18:07:21.228Z,100.00
2023-03-19T18:09:50.266Z,100.00
2023-03-19T18:12:19.269Z,100.00
2023-03-19T18:14:47.090Z,100.00
2023-03-19T18:17:16.751Z,100.00
2023-03-19T18:19:46.357Z,100.00
2023-03-19T18:22:15.447Z,100.00
2023-03-19T18:24:43.677Z,100.00
2023-03-19T18:27:11.578Z,100.00
2023-03-19T18:29:40.600Z,100.00
2023-03-19T18:32:11.869Z,100.00
2023-03-19T18:34:39.562Z,100.00
2023-03-19T18:37:07.253Z,100.00
2023-03-19T18:39:38.050Z,100.00
2023-03-19T18:42:05.934Z,100.00
2023-03-19T18:44:33.582Z,100.00
2023-03-19T18:47:02.748Z,100.00
2023-03-19T18:49:31.000Z,100.00
2023-03-19T18:52:03.194Z,100.00
2023-03-19T18:54:31.864Z,100.00
2023-03-19T18:57:00.826Z,100.00
2023-03-19T18:59:32.608Z,100.00
2023-03-19T19:02:03.578Z,100.00
2023-03-19T19:04:31.526Z,100.00
2023-03-19T19:06:59.774Z,100.00
2023-03-19T19:09:27.560Z,100.00
2023-03-19T19:12:00.818Z,100.00
2023-03-19T19:14:28.966Z,100.00
2023-03-19T19:16:57.146Z,100.00
2023-03-19T19:19:27.725Z,100.00
2023-03-19T19:21:55.543Z,100.00
2023-03-19T19:24:23.260Z,100.00
2023-03-19T19:26:54.020Z,100.00
2023-03-19T19:29:24.661Z,100.00
2023-03-19T19:31:52.493Z,100.00
2023-03-19T19:34:20.169Z,100.00
2023-03-19T19:36:50.817Z,100.00
2023-03-19T19:39:18.913Z,100.00
2023-03-19T19:41:47.917Z,100.00
2023-03-19T19:44:18.190Z,100.00
2023-03-19T19:46:45.764Z,100.00
2023-03-19T19:49:14.291Z,100.00
2023-03-19T19:51:41.903Z,100.00
2023-03-19T19:54:11.027Z,100.00
2023-03-19T19:56:39.147Z,100.00
2023-03-19T19:59:07.926Z,100.00
2023-03-19T20:01:35.793Z,100.00
2023-03-19T20:04:05.461Z,100.00
2023-03-19T20:06:33.473Z,100.00
2023-03-19T20:09:01.114Z,100.00
2023-03-19T20:11:32.062Z,100.00
2023-03-19T20:14:00.142Z,100.00
2023-03-19T20:16:27.778Z,100.00
2023-03-19T20:18:55.484Z,100.00
2023-03-19T20:21:23.670Z,100.00
2023-03-19T20:23:55.503Z,100.00
2023-03-19T20:26:25.259Z,100.00
2023-03-19T20:28:54.557Z,100.00
2023-03-19T20:31:27.137Z,100.00
2023-03-19T20:33:54.801Z,100.00
2023-03-19T20:36:22.791Z,100.00
2023-03-19T20:38:50.909Z,100.00
2023-03-19T20:41:20.557Z,100.00
2023-03-19T20:43:48.274Z,100.00
2023-03-19T20:46:18.956Z,100.00
2023-03-19T20:48:46.670Z,100.00
2023-03-19T20:51:19.711Z,100.00
2023-03-19T20:53:48.405Z,100.00
2023-03-19T20:56:17.362Z,100.00
2023-03-19T20:58:45.506Z,100.00
2023-03-19T21:01:14.268Z,100.00
2023-03-19T21:03:43.517Z,100.00
2023-03-19T21:06:16.774Z,100.00
2023-03-19T21:08:46.061Z,100.00
2023-03-19T21:11:17.673Z,100.00
2023-03-19T21:13:46.343Z,100.00
2023-03-19T21:16:18.610Z,100.00
2023-03-19T21:18:48.359Z,100.00
2023-03-19T21:21:16.799Z,100.00
2023-03-19T21:23:50.381Z,100.00
2023-03-19T21:26:19.390Z,100.00
2023-03-19T21:28:48.579Z,100.00
2023-03-19T21:31:18.834Z,100.00
2023-03-19T21:33:48.520Z,100.00
2023-03-19T21:36:16.951Z,100.00
2023-03-19T21:38:44.821Z,100.00
2023-03-19T21:41:19.888Z,100.00
2023-03-19T21:43:49.498Z,100.00
2023-03-19T21:46:24.491Z,100.00
2023-03-19T21:48:54.394Z,100.00
2023-03-19T21:51:22.709Z,100.00
2023-03-19T21:53:50.436Z,100.00
2023-03-19T21:56:21.970Z,100.00
2023-03-19T21:58:50.653Z,100.00
2023-03-19T22:01:20.681Z,100.00
2023-03-19T22:03:48.496Z,100.00
2023-03-19T22:06:18.006Z,100.00
2023-03-19T22:08:48.071Z,100.00
2023-03-19T22:11:18.542Z,100.00
2023-03-19T22:13:46.433Z,100.00
2023-03-19T22:16:19.796Z,100.00
2023-03-19T22:18:47.900Z,100.00
2023-03-19T22:21:19.130Z,100.00
2023-03-19T22:23:47.331Z,100.00
2023-03-19T22:26:30.065Z,100.00
2023-03-19T22:28:59.147Z,100.00
2023-03-19T22:31:26.900Z,100.00
2023-03-19T22:33:54.978Z,100.00
2023-03-19T22:36:24.091Z,100.00
2023-03-19T22:38:51.872Z,100.00
2023-03-19T22:41:25.937Z,100.00
2023-03-19T22:43:53.757Z,100.00
2023-03-19T22:46:22.364Z,100.00
2023-03-19T22:48:51.014Z,100.00
2023-03-19T22:51:19.915Z,100.00
2023-03-19T22:53:49.079Z,100.00
2023-03-19T22:56:17.842Z,100.00
2023-03-19T22:58:46.778Z,100.00
2023-03-19T23:01:32.645Z,100.00
2023-03-19T23:04:14.735Z,100.00
2023-03-19T23:06:42.372Z,100.00
2023-03-19T23:09:15.339Z,100.00
2023-03-19T23:11:43.087Z,100.00
2023-03-19T23:14:25.931Z,100.00
2023-03-19T23:19:26.297Z,100.00
2023-03-19T23:21:54.631Z,100.00
2023-03-19T23:24:24.172Z,100.00
2023-03-19T23:26:54.324Z,100.00
2023-03-19T23:29:24.512Z,100.00
2023-03-19T23:31:52.501Z,100.00
2023-03-19T23:34:20.266Z,100.00
2023-03-19T23:36:47.889Z,100.00
2023-03-19T23:39:16.406Z,100.00
2023-03-19T23:41:48.257Z,100.00
2023-03-19T23:44:17.687Z,100.00
2023-03-19T23:46:45.616Z,100.00
2023-03-19T23:49:13.983Z,100.00
2023-03-19T23:51:42.108Z,100.00
2023-03-19T23:54:28.460Z,100.00
2023-03-19T23:56:59.666Z,100.00
2023-03-19T23:59:28.603Z,100.00
